sensor_id;sensor_type;location;lat;lon;timestamp;P1;durP1;ratioP1;P2;durP2;ratioP2
52978;SDS011;63430;53.186;6.598;2024-01-15T00:00:42;11.57;;;2.15;;
52978;SDS011;63430;53.186;6.598;2024-01-15T00:02:47;14.30;;;2.15;;
52978;SDS011;63430;53.186;6.598;2024-01-15T00:04:50;10.15;;;2.10;;
52978;SDS011;63430;53.186;6.598;2024-01-15T00:06:53;12.98;;;2.20;;
52978;SDS011;63430;53.186;6.598;2024-01-15T00:08:56;13.77;;;1.90;;
52978;SDS011;63430;53.186;6.598;2024-01-15T00:11:20;13.00;;;2.17;;
52978;SDS011;63430;53.186;6.598;2024-01-15T00:13:42;16.92;;;2.08;;
52978;SDS011;63430;53.186;6.598;2024-01-15T00:15:47;10.95;;;1.45;;
52978;SDS011;63430;53.186;6.598;2024-01-15T00:17:51;8.82;;;1.80;;
52978;SDS011;63430;53.186;6.598;2024-01-15T00:19:54;10.98;;;1.77;;
52978;SDS011;63430;53.186;6.598;2024-01-15T00:21:56;8.75;;;0.98;;
52978;SDS011;63430;53.186;6.598;2024-01-15T00:23:59;8.02;;;1.30;;
52978;SDS011;63430;53.186;6.598;2024-01-15T00:26:01;9.73;;;1.20;;
52978;SDS011;63430;53.186;6.598;2024-01-15T00:28:04;8.40;;;1.83;;
52978;SDS011;63430;53.186;6.598;2024-01-15T00:30:07;5.20;;;0.80;;
52978;SDS011;63430;53.186;6.598;2024-01-15T00:32:14;7.05;;;1.75;;
52978;SDS011;63430;53.186;6.598;2024-01-15T00:34:16;5.10;;;0.82;;
52978;SDS011;63430;53.186;6.598;2024-01-15T00:36:19;6.78;;;1.27;;
52978;SDS011;63430;53.186;6.598;2024-01-15T00:38:21;6.10;;;1.05;;
52978;SDS011;63430;53.186;6.598;2024-01-15T00:40:24;8.52;;;1.38;;
52978;SDS011;63430;53.186;6.598;2024-01-15T00:42:27;7.97;;;1.05;;
52978;SDS011;63430;53.186;6.598;2024-01-15T00:44:30;5.97;;;1.15;;
52978;SDS011;63430;53.186;6.598;2024-01-15T00:46:32;6.88;;;0.88;;
52978;SDS011;63430;53.186;6.598;2024-01-15T00:48:37;5.50;;;0.93;;
52978;SDS011;63430;53.186;6.598;2024-01-15T00:50:40;5.63;;;0.75;;
52978;SDS011;63430;53.186;6.598;2024-01-15T00:52:43;6.55;;;1.02;;
52978;SDS011;63430;53.186;6.598;2024-01-15T00:54:45;8.48;;;1.10;;
52978;SDS011;63430;53.186;6.598;2024-01-15T00:56:48;13.13;;;1.23;;
52978;SDS011;63430;53.186;6.598;2024-01-15T00:58:50;9.32;;;1.58;;
52978;SDS011;63430;53.186;6.598;2024-01-15T01:00:53;9.63;;;1.48;;
52978;SDS011;63430;53.186;6.598;2024-01-15T01:02:56;10.80;;;1.52;;
52978;SDS011;63430;53.186;6.598;2024-01-15T01:05:01;10.27;;;1.27;;
52978;SDS011;63430;53.186;6.598;2024-01-15T01:07:04;7.57;;;1.10;;
52978;SDS011;63430;53.186;6.598;2024-01-15T01:09:06;7.00;;;0.90;;
52978;SDS011;63430;53.186;6.598;2024-01-15T01:11:12;9.45;;;1.40;;
52978;SDS011;63430;53.186;6.598;2024-01-15T01:13:15;10.82;;;1.40;;
52978;SDS011;63430;53.186;6.598;2024-01-15T01:15:17;11.95;;;2.00;;
52978;SDS011;63430;53.186;6.598;2024-01-15T01:17:20;13.38;;;2.80;;
52978;SDS011;63430;53.186;6.598;2024-01-15T01:19:24;14.52;;;1.58;;
52978;SDS011;63430;53.186;6.598;2024-01-15T01:21:30;19.60;;;2.25;;
52978;SDS011;63430;53.186;6.598;2024-01-15T01:23:33;14.20;;;2.08;;
52978;SDS011;63430;53.186;6.598;2024-01-15T01:25:35;17.35;;;2.22;;
52978;SDS011;63430;53.186;6.598;2024-01-15T01:27:38;18.00;;;1.95;;
52978;SDS011;63430;53.186;6.598;2024-01-15T01:29:41;18.70;;;4.75;;
52978;SDS011;63430;53.186;6.598;2024-01-15T01:32:04;13.13;;;2.15;;
52978;SDS011;63430;53.186;6.598;2024-01-15T01:34:07;10.70;;;2.00;;
52978;SDS011;63430;53.186;6.598;2024-01-15T01:36:33;18.05;;;3.17;;
52978;SDS011;63430;53.186;6.598;2024-01-15T01:38:56;19.75;;;1.88;;
52978;SDS011;63430;53.186;6.598;2024-01-15T01:40:58;8.90;;;2.33;;
52978;SDS011;63430;53.186;6.598;2024-01-15T01:43:02;8.25;;;1.17;;
52978;SDS011;63430;53.186;6.598;2024-01-15T01:45:05;11.98;;;2.10;;
52978;SDS011;63430;53.186;6.598;2024-01-15T01:47:08;7.05;;;1.27;;
52978;SDS011;63430;53.186;6.598;2024-01-15T01:49:11;13.70;;;2.63;;
52978;SDS011;63430;53.186;6.598;2024-01-15T01:51:14;9.40;;;1.52;;
52978;SDS011;63430;53.186;6.598;2024-01-15T01:53:20;11.35;;;2.35;;
52978;SDS011;63430;53.186;6.598;2024-01-15T01:55:24;12.02;;;1.40;;
52978;SDS011;63430;53.186;6.598;2024-01-15T01:57:29;11.75;;;1.70;;
52978;SDS011;63430;53.186;6.598;2024-01-15T01:59:34;11.43;;;1.63;;
52978;SDS011;63430;53.186;6.598;2024-01-15T02:01:38;14.25;;;1.65;;
52978;SDS011;63430;53.186;6.598;2024-01-15T02:03:42;7.78;;;1.13;;
52978;SDS011;63430;53.186;6.598;2024-01-15T02:05:45;9.40;;;1.67;;
52978;SDS011;63430;53.186;6.598;2024-01-15T02:07:50;7.38;;;1.50;;
52978;SDS011;63430;53.186;6.598;2024-01-15T02:09:55;7.72;;;1.52;;
52978;SDS011;63430;53.186;6.598;2024-01-15T02:11:58;13.75;;;1.83;;
52978;SDS011;63430;53.186;6.598;2024-01-15T02:14:01;12.43;;;1.80;;
52978;SDS011;63430;53.186;6.598;2024-01-15T02:16:05;11.88;;;1.95;;
52978;SDS011;63430;53.186;6.598;2024-01-15T02:18:07;13.77;;;1.98;;
52978;SDS011;63430;53.186;6.598;2024-01-15T02:20:11;12.23;;;1.83;;
52978;SDS011;63430;53.186;6.598;2024-01-15T02:22:14;14.98;;;2.42;;
52978;SDS011;63430;53.186;6.598;2024-01-15T02:24:19;12.35;;;2.35;;
52978;SDS011;63430;53.186;6.598;2024-01-15T02:26:21;9.50;;;2.00;;
52978;SDS011;63430;53.186;6.598;2024-01-15T02:28:24;10.63;;;1.70;;
52978;SDS011;63430;53.186;6.598;2024-01-15T02:30:27;14.55;;;1.50;;
52978;SDS011;63430;53.186;6.598;2024-01-15T02:32:31;9.82;;;1.60;;
52978;SDS011;63430;53.186;6.598;2024-01-15T02:34:33;6.45;;;1.42;;
52978;SDS011;63430;53.186;6.598;2024-01-15T02:36:36;12.25;;;1.52;;
52978;SDS011;63430;53.186;6.598;2024-01-15T02:38:39;11.48;;;1.70;;
52978;SDS011;63430;53.186;6.598;2024-01-15T02:40:45;10.48;;;1.88;;
52978;SDS011;63430;53.186;6.598;2024-01-15T02:42:48;12.38;;;1.90;;
52978;SDS011;63430;53.186;6.598;2024-01-15T02:44:51;12.93;;;1.60;;
52978;SDS011;63430;53.186;6.598;2024-01-15T02:46:53;10.93;;;2.92;;
52978;SDS011;63430;53.186;6.598;2024-01-15T02:48:56;15.75;;;1.65;;
52978;SDS011;63430;53.186;6.598;2024-01-15T02:50:59;9.35;;;1.55;;
52978;SDS011;63430;53.186;6.598;2024-01-15T02:53:01;14.02;;;1.70;;
52978;SDS011;63430;53.186;6.598;2024-01-15T02:55:05;10.52;;;1.80;;
52978;SDS011;63430;53.186;6.598;2024-01-15T02:57:11;17.80;;;2.10;;
52978;SDS011;63430;53.186;6.598;2024-01-15T02:59:13;14.90;;;2.17;;
52978;SDS011;63430;53.186;6.598;2024-01-15T03:01:18;14.73;;;1.90;;
52978;SDS011;63430;53.186;6.598;2024-01-15T03:03:21;10.65;;;1.70;;
52978;SDS011;63430;53.186;6.598;2024-01-15T03:05:24;12.35;;;2.17;;
52978;SDS011;63430;53.186;6.598;2024-01-15T03:07:28;12.30;;;2.08;;
52978;SDS011;63430;53.186;6.598;2024-01-15T03:09:30;13.30;;;1.88;;
52978;SDS011;63430;53.186;6.598;2024-01-15T03:11:36;13.15;;;2.13;;
52978;SDS011;63430;53.186;6.598;2024-01-15T03:13:42;10.50;;;2.38;;
52978;SDS011;63430;53.186;6.598;2024-01-15T03:15:45;12.43;;;2.38;;
52978;SDS011;63430;53.186;6.598;2024-01-15T03:17:48;12.65;;;2.05;;
52978;SDS011;63430;53.186;6.598;2024-01-15T03:19:52;14.60;;;2.40;;
52978;SDS011;63430;53.186;6.598;2024-01-15T03:21:56;13.82;;;1.63;;
52978;SDS011;63430;53.186;6.598;2024-01-15T03:23:58;12.63;;;1.67;;
52978;SDS011;63430;53.186;6.598;2024-01-15T03:26:01;20.30;;;3.05;;
52978;SDS011;63430;53.186;6.598;2024-01-15T03:28:04;11.52;;;2.10;;
52978;SDS011;63430;53.186;6.598;2024-01-15T03:30:10;14.70;;;2.03;;
52978;SDS011;63430;53.186;6.598;2024-01-15T03:32:14;18.33;;;2.65;;
52978;SDS011;63430;53.186;6.598;2024-01-15T03:34:38;17.63;;;2.38;;
52978;SDS011;63430;53.186;6.598;2024-01-15T03:36:41;14.02;;;2.10;;
52978;SDS011;63430;53.186;6.598;2024-01-15T03:38:44;23.63;;;2.75;;
52978;SDS011;63430;53.186;6.598;2024-01-15T03:40:47;20.00;;;2.53;;
52978;SDS011;63430;53.186;6.598;2024-01-15T03:42:50;20.83;;;2.92;;
52978;SDS011;63430;53.186;6.598;2024-01-15T03:44:53;17.77;;;3.70;;
52978;SDS011;63430;53.186;6.598;2024-01-15T03:46:58;21.40;;;2.67;;
52978;SDS011;63430;53.186;6.598;2024-01-15T03:49:01;23.17;;;2.83;;
52978;SDS011;63430;53.186;6.598;2024-01-15T03:51:04;17.40;;;2.30;;
52978;SDS011;63430;53.186;6.598;2024-01-15T03:53:07;21.00;;;2.63;;
52978;SDS011;63430;53.186;6.598;2024-01-15T03:55:10;16.08;;;2.50;;
52978;SDS011;63430;53.186;6.598;2024-01-15T03:57:13;16.95;;;2.67;;
52978;SDS011;63430;53.186;6.598;2024-01-15T03:59:15;14.40;;;2.28;;
52978;SDS011;63430;53.186;6.598;2024-01-15T04:01:18;12.20;;;2.65;;
52978;SDS011;63430;53.186;6.598;2024-01-15T04:03:23;13.90;;;2.00;;
52978;SDS011;63430;53.186;6.598;2024-01-15T04:05:26;14.88;;;1.70;;
52978;SDS011;63430;53.186;6.598;2024-01-15T04:07:29;12.48;;;2.33;;
52978;SDS011;63430;53.186;6.598;2024-01-15T04:09:32;14.73;;;1.90;;
52978;SDS011;63430;53.186;6.598;2024-01-15T04:11:54;16.73;;;2.40;;
52978;SDS011;63430;53.186;6.598;2024-01-15T04:13:57;9.63;;;1.40;;
52978;SDS011;63430;53.186;6.598;2024-01-15T04:15:59;10.55;;;1.60;;
52978;SDS011;63430;53.186;6.598;2024-01-15T04:18:03;11.60;;;1.70;;
52978;SDS011;63430;53.186;6.598;2024-01-15T04:20:09;10.10;;;1.58;;
52978;SDS011;63430;53.186;6.598;2024-01-15T04:22:14;7.82;;;1.88;;
52978;SDS011;63430;53.186;6.598;2024-01-15T04:24:16;8.95;;;1.30;;
52978;SDS011;63430;53.186;6.598;2024-01-15T04:26:20;7.45;;;1.13;;
52978;SDS011;63430;53.186;6.598;2024-01-15T04:28:22;6.40;;;1.10;;
52978;SDS011;63430;53.186;6.598;2024-01-15T04:30:25;6.45;;;1.55;;
52978;SDS011;63430;53.186;6.598;2024-01-15T04:32:28;10.27;;;1.58;;
52978;SDS011;63430;53.186;6.598;2024-01-15T04:34:51;6.13;;;1.23;;
52978;SDS011;63430;53.186;6.598;2024-01-15T04:36:56;11.77;;;1.33;;
52978;SDS011;63430;53.186;6.598;2024-01-15T04:38:59;7.90;;;1.63;;
52978;SDS011;63430;53.186;6.598;2024-01-15T04:41:02;7.20;;;1.33;;
52978;SDS011;63430;53.186;6.598;2024-01-15T04:43:05;7.68;;;1.55;;
52978;SDS011;63430;53.186;6.598;2024-01-15T04:45:08;6.10;;;1.60;;
52978;SDS011;63430;53.186;6.598;2024-01-15T04:47:11;6.03;;;1.25;;
52978;SDS011;63430;53.186;6.598;2024-01-15T04:49:14;8.32;;;1.40;;
52978;SDS011;63430;53.186;6.598;2024-01-15T04:51:18;6.07;;;1.30;;
52978;SDS011;63430;53.186;6.598;2024-01-15T04:53:23;7.10;;;1.27;;
52978;SDS011;63430;53.186;6.598;2024-01-15T04:55:26;4.75;;;1.02;;
52978;SDS011;63430;53.186;6.598;2024-01-15T04:57:28;8.90;;;1.23;;
52978;SDS011;63430;53.186;6.598;2024-01-15T04:59:31;5.55;;;0.75;;
52978;SDS011;63430;53.186;6.598;2024-01-15T05:01:33;5.13;;;0.90;;
52978;SDS011;63430;53.186;6.598;2024-01-15T05:03:36;6.38;;;1.23;;
52978;SDS011;63430;53.186;6.598;2024-01-15T05:05:59;6.68;;;1.20;;
52978;SDS011;63430;53.186;6.598;2024-01-15T05:08:02;6.13;;;1.00;;
52978;SDS011;63430;53.186;6.598;2024-01-15T05:10:08;6.20;;;0.80;;
52978;SDS011;63430;53.186;6.598;2024-01-15T05:12:11;4.05;;;0.75;;
52978;SDS011;63430;53.186;6.598;2024-01-15T05:14:15;4.85;;;0.73;;
52978;SDS011;63430;53.186;6.598;2024-01-15T05:16:17;7.85;;;1.65;;
52978;SDS011;63430;53.186;6.598;2024-01-15T05:18:20;6.90;;;0.93;;
52978;SDS011;63430;53.186;6.598;2024-01-15T05:20:24;5.72;;;1.00;;
52978;SDS011;63430;53.186;6.598;2024-01-15T05:22:27;3.47;;;0.88;;
52978;SDS011;63430;53.186;6.598;2024-01-15T05:24:30;7.55;;;0.80;;
52978;SDS011;63430;53.186;6.598;2024-01-15T05:26:35;4.47;;;0.95;;
52978;SDS011;63430;53.186;6.598;2024-01-15T05:28:38;7.97;;;0.90;;
52978;SDS011;63430;53.186;6.598;2024-01-15T05:30:42;6.22;;;0.80;;
52978;SDS011;63430;53.186;6.598;2024-01-15T05:32:45;8.07;;;1.00;;
52978;SDS011;63430;53.186;6.598;2024-01-15T05:34:47;7.03;;;1.20;;
52978;SDS011;63430;53.186;6.598;2024-01-15T05:36:50;8.50;;;1.23;;
52978;SDS011;63430;53.186;6.598;2024-01-15T05:38:53;11.70;;;1.95;;
52978;SDS011;63430;53.186;6.598;2024-01-15T05:40:55;9.15;;;1.00;;
52978;SDS011;63430;53.186;6.598;2024-01-15T05:43:00;9.43;;;1.52;;
52978;SDS011;63430;53.186;6.598;2024-01-15T05:45:03;8.48;;;1.05;;
52978;SDS011;63430;53.186;6.598;2024-01-15T05:47:07;5.93;;;1.38;;
52978;SDS011;63430;53.186;6.598;2024-01-15T05:49:10;11.20;;;1.50;;
52978;SDS011;63430;53.186;6.598;2024-01-15T05:51:12;10.95;;;2.42;;
52978;SDS011;63430;53.186;6.598;2024-01-15T05:53:15;13.70;;;1.88;;
52978;SDS011;63430;53.186;6.598;2024-01-15T05:55:17;15.88;;;2.30;;
52978;SDS011;63430;53.186;6.598;2024-01-15T05:57:20;14.65;;;2.08;;
52978;SDS011;63430;53.186;6.598;2024-01-15T05:59:25;15.80;;;2.30;;
52978;SDS011;63430;53.186;6.598;2024-01-15T06:01:28;16.00;;;1.90;;
52978;SDS011;63430;53.186;6.598;2024-01-15T06:03:30;11.90;;;2.60;;
52978;SDS011;63430;53.186;6.598;2024-01-15T06:05:33;18.65;;;2.10;;
52978;SDS011;63430;53.186;6.598;2024-01-15T06:07:35;16.33;;;3.20;;
52978;SDS011;63430;53.186;6.598;2024-01-15T06:09:58;13.27;;;1.70;;
52978;SDS011;63430;53.186;6.598;2024-01-15T06:12:01;13.85;;;2.78;;
52978;SDS011;63430;53.186;6.598;2024-01-15T06:14:03;13.45;;;3.05;;
52978;SDS011;63430;53.186;6.598;2024-01-15T06:16:14;12.68;;;1.55;;
52978;SDS011;63430;53.186;6.598;2024-01-15T06:18:18;11.75;;;1.50;;
52978;SDS011;63430;53.186;6.598;2024-01-15T06:20:21;12.65;;;2.20;;
52978;SDS011;63430;53.186;6.598;2024-01-15T06:22:23;13.02;;;1.73;;
52978;SDS011;63430;53.186;6.598;2024-01-15T06:24:46;9.73;;;1.60;;
52978;SDS011;63430;53.186;6.598;2024-01-15T06:26:49;11.02;;;1.67;;
52978;SDS011;63430;53.186;6.598;2024-01-15T06:28:52;12.90;;;1.95;;
52978;SDS011;63430;53.186;6.598;2024-01-15T06:30:54;15.68;;;2.17;;
52978;SDS011;63430;53.186;6.598;2024-01-15T06:32:59;15.05;;;2.72;;
52978;SDS011;63430;53.186;6.598;2024-01-15T06:35:02;13.88;;;1.90;;
52978;SDS011;63430;53.186;6.598;2024-01-15T06:37:05;17.33;;;2.10;;
52978;SDS011;63430;53.186;6.598;2024-01-15T06:39:07;17.73;;;2.05;;
52978;SDS011;63430;53.186;6.598;2024-01-15T06:41:11;8.35;;;2.22;;
52978;SDS011;63430;53.186;6.598;2024-01-15T06:43:14;11.93;;;2.08;;
52978;SDS011;63430;53.186;6.598;2024-01-15T06:45:19;14.32;;;2.13;;
52978;SDS011;63430;53.186;6.598;2024-01-15T06:47:22;11.70;;;2.83;;
52978;SDS011;63430;53.186;6.598;2024-01-15T06:49:27;16.42;;;2.28;;
52978;SDS011;63430;53.186;6.598;2024-01-15T06:51:30;14.38;;;2.00;;
52978;SDS011;63430;53.186;6.598;2024-01-15T06:53:32;15.35;;;1.90;;
52978;SDS011;63430;53.186;6.598;2024-01-15T06:55:35;18.75;;;2.15;;
52978;SDS011;63430;53.186;6.598;2024-01-15T06:57:38;13.60;;;2.17;;
52978;SDS011;63430;53.186;6.598;2024-01-15T06:59:40;16.60;;;2.17;;
52978;SDS011;63430;53.186;6.598;2024-01-15T07:01:43;14.05;;;2.00;;
52978;SDS011;63430;53.186;6.598;2024-01-15T07:03:45;16.23;;;2.67;;
52978;SDS011;63430;53.186;6.598;2024-01-15T07:06:10;18.00;;;2.63;;
52978;SDS011;63430;53.186;6.598;2024-01-15T07:08:13;15.40;;;1.95;;
52978;SDS011;63430;53.186;6.598;2024-01-15T07:10:36;14.23;;;2.00;;
52978;SDS011;63430;53.186;6.598;2024-01-15T07:12:58;17.33;;;2.70;;
52978;SDS011;63430;53.186;6.598;2024-01-15T07:15:01;17.45;;;2.60;;
52978;SDS011;63430;53.186;6.598;2024-01-15T07:17:23;16.27;;;2.35;;
52978;SDS011;63430;53.186;6.598;2024-01-15T07:19:26;11.70;;;1.73;;
52978;SDS011;63430;53.186;6.598;2024-01-15T07:21:32;13.07;;;2.03;;
52978;SDS011;63430;53.186;6.598;2024-01-15T07:23:55;16.58;;;2.53;;
52978;SDS011;63430;53.186;6.598;2024-01-15T07:25:58;15.45;;;2.50;;
52978;SDS011;63430;53.186;6.598;2024-01-15T07:28:00;17.60;;;2.00;;
52978;SDS011;63430;53.186;6.598;2024-01-15T07:30:03;12.38;;;2.13;;
52978;SDS011;63430;53.186;6.598;2024-01-15T07:32:09;11.20;;;1.60;;
52978;SDS011;63430;53.186;6.598;2024-01-15T07:34:32;16.83;;;2.55;;
52978;SDS011;63430;53.186;6.598;2024-01-15T07:36:37;15.73;;;2.13;;
52978;SDS011;63430;53.186;6.598;2024-01-15T07:38:40;13.02;;;2.00;;
52978;SDS011;63430;53.186;6.598;2024-01-15T07:40:42;8.95;;;1.50;;
52978;SDS011;63430;53.186;6.598;2024-01-15T07:42:45;9.52;;;1.60;;
52978;SDS011;63430;53.186;6.598;2024-01-15T07:44:47;11.18;;;1.45;;
52978;SDS011;63430;53.186;6.598;2024-01-15T07:46:50;9.10;;;2.10;;
52978;SDS011;63430;53.186;6.598;2024-01-15T07:48:52;14.57;;;1.85;;
52978;SDS011;63430;53.186;6.598;2024-01-15T07:50:58;10.88;;;1.55;;
52978;SDS011;63430;53.186;6.598;2024-01-15T07:53:03;8.88;;;1.52;;
52978;SDS011;63430;53.186;6.598;2024-01-15T07:55:06;11.82;;;1.80;;
52978;SDS011;63430;53.186;6.598;2024-01-15T07:57:10;14.43;;;1.88;;
52978;SDS011;63430;53.186;6.598;2024-01-15T07:59:13;12.68;;;1.50;;
52978;SDS011;63430;53.186;6.598;2024-01-15T08:01:15;13.90;;;1.95;;
52978;SDS011;63430;53.186;6.598;2024-01-15T08:03:38;10.27;;;1.60;;
52978;SDS011;63430;53.186;6.598;2024-01-15T08:05:40;16.20;;;3.03;;
52978;SDS011;63430;53.186;6.598;2024-01-15T08:07:43;13.68;;;1.95;;
52978;SDS011;63430;53.186;6.598;2024-01-15T08:09:48;14.15;;;1.65;;
52978;SDS011;63430;53.186;6.598;2024-01-15T08:11:51;14.00;;;2.00;;
52978;SDS011;63430;53.186;6.598;2024-01-15T08:13:53;15.70;;;1.77;;
52978;SDS011;63430;53.186;6.598;2024-01-15T08:15:55;15.45;;;1.77;;
52978;SDS011;63430;53.186;6.598;2024-01-15T08:17:58;12.00;;;2.13;;
52978;SDS011;63430;53.186;6.598;2024-01-15T08:20:01;13.00;;;1.95;;
52978;SDS011;63430;53.186;6.598;2024-01-15T08:22:04;13.63;;;1.65;;
52978;SDS011;63430;53.186;6.598;2024-01-15T08:24:07;7.80;;;1.48;;
52978;SDS011;63430;53.186;6.598;2024-01-15T08:26:14;7.43;;;1.25;;
52978;SDS011;63430;53.186;6.598;2024-01-15T08:28:36;15.88;;;2.22;;
52978;SDS011;63430;53.186;6.598;2024-01-15T08:31:00;11.00;;;1.77;;
52978;SDS011;63430;53.186;6.598;2024-01-15T08:33:03;10.15;;;1.58;;
52978;SDS011;63430;53.186;6.598;2024-01-15T08:35:19;6.18;;;1.20;;
52978;SDS011;63430;53.186;6.598;2024-01-15T08:37:24;6.60;;;1.02;;
52978;SDS011;63430;53.186;6.598;2024-01-15T08:39:27;10.88;;;1.20;;
52978;SDS011;63430;53.186;6.598;2024-01-15T08:41:33;6.93;;;1.30;;
52978;SDS011;63430;53.186;6.598;2024-01-15T08:43:36;8.07;;;1.13;;
52978;SDS011;63430;53.186;6.598;2024-01-15T08:45:38;5.22;;;1.27;;
52978;SDS011;63430;53.186;6.598;2024-01-15T08:47:41;6.43;;;1.00;;
52978;SDS011;63430;53.186;6.598;2024-01-15T08:49:43;6.97;;;0.77;;
52978;SDS011;63430;53.186;6.598;2024-01-15T08:51:47;9.68;;;1.40;;
52978;SDS011;63430;53.186;6.598;2024-01-15T08:53:50;4.20;;;0.82;;
52978;SDS011;63430;53.186;6.598;2024-01-15T08:55:52;7.88;;;1.30;;
52978;SDS011;63430;53.186;6.598;2024-01-15T08:57:57;5.57;;;1.52;;
52978;SDS011;63430;53.186;6.598;2024-01-15T09:00:03;7.72;;;1.30;;
52978;SDS011;63430;53.186;6.598;2024-01-15T09:02:10;4.68;;;1.10;;
52978;SDS011;63430;53.186;6.598;2024-01-15T09:04:12;8.82;;;1.40;;
52978;SDS011;63430;53.186;6.598;2024-01-15T09:06:15;5.80;;;1.00;;
52978;SDS011;63430;53.186;6.598;2024-01-15T09:08:18;4.13;;;0.90;;
52978;SDS011;63430;53.186;6.598;2024-01-15T09:10:20;4.80;;;0.90;;
52978;SDS011;63430;53.186;6.598;2024-01-15T09:12:23;3.53;;;0.90;;
52978;SDS011;63430;53.186;6.598;2024-01-15T09:14:28;5.93;;;1.00;;
52978;SDS011;63430;53.186;6.598;2024-01-15T09:16:37;5.15;;;1.40;;
52978;SDS011;63430;53.186;6.598;2024-01-15T09:18:40;9.80;;;1.30;;
52978;SDS011;63430;53.186;6.598;2024-01-15T09:20:43;8.23;;;0.90;;
52978;SDS011;63430;53.186;6.598;2024-01-15T09:22:45;8.30;;;0.95;;
52978;SDS011;63430;53.186;6.598;2024-01-15T09:24:48;9.57;;;1.70;;
52978;SDS011;63430;53.186;6.598;2024-01-15T09:26:51;7.80;;;1.15;;
52978;SDS011;63430;53.186;6.598;2024-01-15T09:28:53;4.88;;;0.98;;
52978;SDS011;63430;53.186;6.598;2024-01-15T09:30:58;5.15;;;0.90;;
52978;SDS011;63430;53.186;6.598;2024-01-15T09:33:01;5.85;;;1.25;;
52978;SDS011;63430;53.186;6.598;2024-01-15T09:35:04;11.20;;;1.15;;
52978;SDS011;63430;53.186;6.598;2024-01-15T09:37:08;4.93;;;1.52;;
52978;SDS011;63430;53.186;6.598;2024-01-15T09:39:17;7.68;;;1.48;;
52978;SDS011;63430;53.186;6.598;2024-01-15T09:41:20;3.97;;;1.00;;
52978;SDS011;63430;53.186;6.598;2024-01-15T09:43:23;8.80;;;1.48;;
52978;SDS011;63430;53.186;6.598;2024-01-15T09:45:25;9.52;;;1.17;;
52978;SDS011;63430;53.186;6.598;2024-01-15T09:47:51;10.65;;;1.83;;
52978;SDS011;63430;53.186;6.598;2024-01-15T09:49:53;5.55;;;1.15;;
52978;SDS011;63430;53.186;6.598;2024-01-15T09:51:58;5.70;;;1.05;;
52978;SDS011;63430;53.186;6.598;2024-01-15T09:54:12;7.25;;;1.58;;
52978;SDS011;63430;53.186;6.598;2024-01-15T09:56:15;11.85;;;1.40;;
52978;SDS011;63430;53.186;6.598;2024-01-15T09:58:18;7.80;;;1.33;;
52978;SDS011;63430;53.186;6.598;2024-01-15T10:00:20;10.50;;;1.58;;
52978;SDS011;63430;53.186;6.598;2024-01-15T10:02:24;11.40;;;2.38;;
52978;SDS011;63430;53.186;6.598;2024-01-15T10:04:29;10.27;;;1.50;;
52978;SDS011;63430;53.186;6.598;2024-01-15T10:06:31;12.50;;;2.05;;
52978;SDS011;63430;53.186;6.598;2024-01-15T10:08:35;11.18;;;1.63;;
52978;SDS011;63430;53.186;6.598;2024-01-15T10:10:38;10.35;;;1.45;;
52978;SDS011;63430;53.186;6.598;2024-01-15T10:12:41;7.82;;;1.40;;
52978;SDS011;63430;53.186;6.598;2024-01-15T10:14:44;8.30;;;1.20;;
52978;SDS011;63430;53.186;6.598;2024-01-15T10:16:46;5.93;;;1.38;;
52978;SDS011;63430;53.186;6.598;2024-01-15T10:18:49;8.60;;;1.33;;
52978;SDS011;63430;53.186;6.598;2024-01-15T10:20:54;15.32;;;1.70;;
52978;SDS011;63430;53.186;6.598;2024-01-15T10:22:59;6.95;;;1.38;;
52978;SDS011;63430;53.186;6.598;2024-01-15T10:25:01;10.93;;;2.00;;
52978;SDS011;63430;53.186;6.598;2024-01-15T10:27:05;8.90;;;1.55;;
52978;SDS011;63430;53.186;6.598;2024-01-15T10:29:08;10.32;;;1.27;;
52978;SDS011;63430;53.186;6.598;2024-01-15T10:31:12;10.90;;;1.73;;
52978;SDS011;63430;53.186;6.598;2024-01-15T10:33:15;3.17;;;1.10;;
52978;SDS011;63430;53.186;6.598;2024-01-15T10:35:23;6.53;;;1.20;;
52978;SDS011;63430;53.186;6.598;2024-01-15T10:37:31;11.07;;;1.50;;
52978;SDS011;63430;53.186;6.598;2024-01-15T10:39:35;11.70;;;1.60;;
52978;SDS011;63430;53.186;6.598;2024-01-15T10:41:38;11.80;;;2.00;;
52978;SDS011;63430;53.186;6.598;2024-01-15T10:43:41;8.60;;;1.67;;
52978;SDS011;63430;53.186;6.598;2024-01-15T10:45:44;9.43;;;1.60;;
52978;SDS011;63430;53.186;6.598;2024-01-15T10:48:07;8.98;;;1.17;;
52978;SDS011;63430;53.186;6.598;2024-01-15T10:50:10;11.20;;;1.65;;
52978;SDS011;63430;53.186;6.598;2024-01-15T10:52:13;9.20;;;1.60;;
52978;SDS011;63430;53.186;6.598;2024-01-15T10:54:19;4.93;;;0.98;;
52978;SDS011;63430;53.186;6.598;2024-01-15T10:56:22;8.60;;;1.58;;
52978;SDS011;63430;53.186;6.598;2024-01-15T10:58:25;6.15;;;1.30;;
52978;SDS011;63430;53.186;6.598;2024-01-15T11:00:33;4.57;;;1.10;;
52978;SDS011;63430;53.186;6.598;2024-01-15T11:02:36;9.57;;;1.40;;
52978;SDS011;63430;53.186;6.598;2024-01-15T11:04:39;3.20;;;0.98;;
52978;SDS011;63430;53.186;6.598;2024-01-15T11:06:42;2.85;;;0.55;;
52978;SDS011;63430;53.186;6.598;2024-01-15T11:08:47;3.28;;;0.63;;
52978;SDS011;63430;53.186;6.598;2024-01-15T11:10:54;3.40;;;0.60;;
52978;SDS011;63430;53.186;6.598;2024-01-15T11:12:57;2.42;;;0.50;;
52978;SDS011;63430;53.186;6.598;2024-01-15T11:15:03;1.20;;;0.40;;
52978;SDS011;63430;53.186;6.598;2024-01-15T11:17:06;3.03;;;0.50;;
52978;SDS011;63430;53.186;6.598;2024-01-15T11:19:09;3.17;;;0.70;;
52978;SDS011;63430;53.186;6.598;2024-01-15T11:21:21;2.05;;;0.50;;
52978;SDS011;63430;53.186;6.598;2024-01-15T11:25:55;4.93;;;0.80;;
52978;SDS011;63430;53.186;6.598;2024-01-15T11:27:58;5.18;;;1.00;;
52978;SDS011;63430;53.186;6.598;2024-01-15T11:30:04;3.45;;;0.70;;
52978;SDS011;63430;53.186;6.598;2024-01-15T11:32:13;6.43;;;0.73;;
52978;SDS011;63430;53.186;6.598;2024-01-15T11:34:19;3.75;;;0.60;;
52978;SDS011;63430;53.186;6.598;2024-01-15T11:36:21;5.68;;;1.23;;
52978;SDS011;63430;53.186;6.598;2024-01-15T11:38:44;3.85;;;0.82;;
52978;SDS011;63430;53.186;6.598;2024-01-15T11:40:47;5.53;;;0.80;;
52978;SDS011;63430;53.186;6.598;2024-01-15T11:43:14;3.50;;;0.40;;
52978;SDS011;63430;53.186;6.598;2024-01-15T11:45:22;5.05;;;0.70;;
52978;SDS011;63430;53.186;6.598;2024-01-15T11:49:58;4.45;;;0.60;;
52978;SDS011;63430;53.186;6.598;2024-01-15T11:52:07;3.65;;;0.63;;
52978;SDS011;63430;53.186;6.598;2024-01-15T11:54:12;3.40;;;0.75;;
52978;SDS011;63430;53.186;6.598;2024-01-15T11:56:17;2.08;;;0.70;;
52978;SDS011;63430;53.186;6.598;2024-01-15T11:58:22;5.85;;;0.70;;
52978;SDS011;63430;53.186;6.598;2024-01-15T12:00:24;4.57;;;0.40;;
52978;SDS011;63430;53.186;6.598;2024-01-15T12:02:27;4.75;;;0.82;;
52978;SDS011;63430;53.186;6.598;2024-01-15T12:04:49;3.15;;;0.40;;
52978;SDS011;63430;53.186;6.598;2024-01-15T12:06:52;5.55;;;0.75;;
52978;SDS011;63430;53.186;6.598;2024-01-15T12:09:05;4.70;;;0.60;;
52978;SDS011;63430;53.186;6.598;2024-01-15T12:11:10;5.30;;;0.60;;
52978;SDS011;63430;53.186;6.598;2024-01-15T12:13:15;3.60;;;0.52;;
52978;SDS011;63430;53.186;6.598;2024-01-15T12:15:22;7.00;;;0.70;;
52978;SDS011;63430;53.186;6.598;2024-01-15T12:17:26;5.78;;;1.08;;
52978;SDS011;63430;53.186;6.598;2024-01-15T12:19:28;7.07;;;0.98;;
52978;SDS011;63430;53.186;6.598;2024-01-15T12:21:31;3.15;;;0.77;;
52978;SDS011;63430;53.186;6.598;2024-01-15T12:23:34;2.28;;;0.70;;
52978;SDS011;63430;53.186;6.598;2024-01-15T12:25:37;4.80;;;0.70;;
52978;SDS011;63430;53.186;6.598;2024-01-15T12:27:39;5.88;;;0.93;;
52978;SDS011;63430;53.186;6.598;2024-01-15T12:29:43;7.43;;;1.20;;
52978;SDS011;63430;53.186;6.598;2024-01-15T12:32:08;8.68;;;1.50;;